Time;durP1;ratioP1;P1;durP2;ratioP2;P2;SDS_P1;SDS_P2;PMS_P1;PMS_P2;Temp;Humidity;BMP_temperature;BMP_pressure;BME280_temperature;BME280_humidity;BME280_pressure;Samples;Min_cycle;Max_cycle;Signal;HPM_P1;HPM_P2
2023/02/25 00:01:44;;;;;;;11.70;7.90;;;;;;;;;;109125;1256;57771;-50
2023/02/25 00:04:30;;;;;;;18.10;9.30;;;;;;;;;;107252;1259;61536;-47
2023/02/25 00:07:18;;;;;;;14.20;8.70;;;;;;;;;;105138;1258;59615;-48
2023/02/25 00:09:46;;;;;;;15.30;8.20;;;;;;;;;;105034;1257;60932;-46
2023/02/25 00:12:14;;;;;;;12.40;8.40;;;;;;;;;;104939;1257;59708;-48
2023/02/25 00:14:41;;;;;;;11.30;8.10;;;;;;;;;;105135;1260;59561;-48
2023/02/25 00:17:10;;;;;;;14.00;8.10;;;;;;;;;;105055;1257;61150;-46
2023/02/25 00:19:38;;;;;;;17.80;9.70;;;;;;;;;;105006;1256;59615;-50
2023/02/25 00:22:06;;;;;;;19.40;9.20;;;;;;;;;;109100;1256;61092;-51
2023/02/25 00:24:34;;;;;;;20.50;9.90;;;;;;;;;;109143;1257;57748;-49
2023/02/25 00:27:03;;;;;;;14.00;8.90;;;;;;;;;;105671;1257;59643;-48
2023/02/25 00:29:31;;;;;;;12.50;7.70;;;;;;;;;;109099;1256;61426;-50
2023/02/25 00:31:59;;;;;;;14.30;9.30;;;;;;;;;;109117;1256;57733;-50
2023/02/25 00:34:27;;;;;;;17.70;7.50;;;;;;;;;;108781;1257;61158;-49
2023/02/25 00:36:56;;;;;;;15.20;8.10;;;;;;;;;;104991;1257;60009;-49
2023/02/25 00:39:41;;;;;;;11.30;8.70;;;;;;;;;;109141;1254;57411;-50
2023/02/25 00:42:18;;;;;;;18.10;8.30;;;;;;;;;;106052;1256;59793;-48
2023/02/25 00:44:46;;;;;;;19.10;7.90;;;;;;;;;;104895;1262;59611;-51
2023/02/25 00:47:15;;;;;;;18.80;8.90;;;;;;;;;;104997;1260;60632;-48
2023/02/25 00:49:48;;;;;;;16.40;9.20;;;;;;;;;;104973;1257;59557;-48
2023/02/25 00:52:16;;;;;;;17.40;8.50;;;;;;;;;;105051;1257;59531;-48
2023/02/25 00:54:44;;;;;;;14.90;8.60;;;;;;;;;;104699;1263;62832;-46
2023/02/25 00:57:12;;;;;;;15.40;9.30;;;;;;;;;;109050;1256;57855;-51
2023/02/25 00:59:40;;;;;;;13.60;9.20;;;;;;;;;;109100;1256;59632;-50
2023/02/25 01:02:07;;;;;;;16.40;8.50;;;;;;;;;;108226;1256;59645;-49
2023/02/25 01:04:36;;;;;;;19.60;9.70;;;;;;;;;;105197;1260;59090;-49
2023/02/25 01:07:07;;;;;;;24.10;9.60;;;;;;;;;;105066;1257;61295;-50
2023/02/25 01:09:35;;;;;;;14.60;7.60;;;;;;;;;;104983;1258;59516;-51
2023/02/25 01:12:03;;;;;;;19.40;9.90;;;;;;;;;;104941;1256;60561;-50
2023/02/25 01:14:31;;;;;;;15.20;8.90;;;;;;;;;;109035;1255;57772;-49
2023/02/25 01:17:01;;;;;;;14.50;8.70;;;;;;;;;;109082;1256;59540;-51
2023/02/25 01:19:32;;;;;;;14.50;9.20;;;;;;;;;;109132;1254;61854;-48
2023/02/25 01:22:00;;;;;;;17.20;10.10;;;;;;;;;;105624;1259;59641;-52
2023/02/25 01:24:32;;;;;;;17.50;10.20;;;;;;;;;;105142;1257;61022;-49
2023/02/25 01:27:01;;;;;;;19.70;10.10;;;;;;;;;;105139;1257;59624;-49
2023/02/25 01:29:38;;;;;;;15.50;9.70;;;;;;;;;;108299;1259;58440;-48
2023/02/25 01:32:07;;;;;;;20.50;9.90;;;;;;;;;;104925;1257;61370;-49
2023/02/25 01:34:35;;;;;;;21.30;10.10;;;;;;;;;;109280;1257;57421;-47
2023/02/25 01:37:04;;;;;;;16.60;9.90;;;;;;;;;;108820;1254;61023;-50
2023/02/25 01:39:33;;;;;;;14.10;9.10;;;;;;;;;;107180;1256;59640;-52
2023/02/25 01:42:02;;;;;;;23.80;9.50;;;;;;;;;;105124;1257;59775;-52
2023/02/25 01:44:32;;;;;;;17.50;9.90;;;;;;;;;;108878;1254;61162;-49
2023/02/25 01:47:16;;;;;;;19.10;10.20;;;;;;;;;;105519;1256;59705;-51
2023/02/25 01:49:44;;;;;;;19.60;10.10;;;;;;;;;;105610;1256;60505;-49
2023/02/25 01:52:18;;;;;;;19.70;9.70;;;;;;;;;;109053;1259;57669;-50
2023/02/25 01:54:46;;;;;;;14.70;10.20;;;;;;;;;;108988;1254;57410;-51
2023/02/25 01:57:16;;;;;;;19.40;10.20;;;;;;;;;;107572;1257;61362;-49
2023/02/25 01:59:44;;;;;;;18.60;10.50;;;;;;;;;;109051;1254;57770;-49
2023/02/25 02:02:15;;;;;;;17.00;10.10;;;;;;;;;;109002;1254;60800;-50
2023/02/25 02:04:43;;;;;;;18.90;10.10;;;;;;;;;;109231;1255;57622;-51
2023/02/25 02:07:13;;;;;;;16.80;9.40;;;;;;;;;;106460;1256;59554;-51
2023/02/25 02:09:54;;;;;;;17.70;10.00;;;;;;;;;;105076;1255;61312;-50
2023/02/25 02:12:23;;;;;;;19.70;10.30;;;;;;;;;;109009;1256;57642;-48
2023/02/25 02:14:50;;;;;;;13.60;9.00;;;;;;;;;;108926;1254;59935;-48
2023/02/25 02:17:25;;;;;;;19.80;10.60;;;;;;;;;;105572;1256;59531;-51
2023/02/25 02:20:00;;;;;;;15.90;10.60;;;;;;;;;;105101;1257;59589;-51
2023/02/25 02:22:39;;;;;;;15.80;10.50;;;;;;;;;;105062;1256;60941;-52
2023/02/25 02:25:06;;;;;;;;;;;;;;;;;;105452;1260;60869;-50
2023/02/25 02:27:38;;;;;;;21.60;11.20;;;;;;;;;;105106;1259;60438;-52
2023/02/25 02:30:15;;;;;;;23.80;11.40;;;;;;;;;;104998;1256;59612;-52
2023/02/25 02:33:19;;;;;;;17.00;11.40;;;;;;;;;;104779;1256;59654;-52
2023/02/25 02:35:56;;;;;;;20.70;12.60;;;;;;;;;;104571;1263;61381;-52
2023/02/25 02:38:29;;;;;;;21.10;12.50;;;;;;;;;;105083;1259;59535;-51
2023/02/25 02:41:04;;;;;;;24.10;13.30;;;;;;;;;;104866;1260;60445;-49
2023/02/25 02:43:32;;;;;;;;;;;;;;;;;;106733;1255;59647;-51
2023/02/25 02:46:03;;;;;;;20.80;12.60;;;;;;;;;;105082;1257;59609;-50
2023/02/25 02:48:31;;;;;;;14.50;11.40;;;;;;;;;;108971;1255;60072;-52
2023/02/25 02:51:00;;;;;;;20.00;11.40;;;;;;;;;;109447;1251;57656;-52
2023/02/25 02:53:48;;;;;;;19.60;12.60;;;;;;;;;;106226;1251;59709;-50
2023/02/25 02:56:17;;;;;;;21.90;12.00;;;;;;;;;;105444;1251;59843;-52
2023/02/25 02:59:18;;;;;;;19.50;12.60;;;;;;;;;;109348;1251;58197;-53
2023/02/25 03:01:53;;;;;;;17.50;11.00;;;;;;;;;;106780;1251;61365;-52
2023/02/25 03:04:22;;;;;;;16.90;11.50;;;;;;;;;;106610;1254;59568;-51
2023/02/25 03:06:51;;;;;;;19.20;12.50;;;;;;;;;;105311;1251;61003;-48
2023/02/25 03:09:29;;;;;;;21.40;13.40;;;;;;;;;;105370;1251;59618;-53
2023/02/25 03:12:01;;;;;;;24.20;13.00;;;;;;;;;;105371;1257;59726;-50
2023/02/25 03:14:30;;;;;;;28.30;13.80;;;;;;;;;;109422;1251;60024;-53
2023/02/25 03:17:18;;;;;;;21.40;12.70;;;;;;;;;;109376;1251;58216;-53
2023/02/25 03:20:06;;;;;;;19.50;13.80;;;;;;;;;;107616;1256;62456;-52
2023/02/25 03:22:38;;;;;;;18.60;13.00;;;;;;;;;;109383;1250;58055;-50
2023/02/25 03:25:09;;;;;;;22.70;13.10;;;;;;;;;;109421;1251;57735;-50
2023/02/25 03:27:41;;;;;;;21.00;13.90;;;;;;;;;;109424;1251;60353;-50
2023/02/25 03:30:17;;;;;;;21.90;14.40;;;;;;;;;;105598;1251;59817;-51
2023/02/25 03:32:50;;;;;;;20.80;14.60;;;;;;;;;;105398;1256;60773;-48
2023/02/25 03:35:18;;;;;;;21.30;13.50;;;;;;;;;;105329;1256;60530;-51
2023/02/25 03:37:47;;;;;;;24.50;13.90;;;;;;;;;;105421;1251;60419;-52
2023/02/25 03:40:15;;;;;;;23.60;14.70;;;;;;;;;;105354;1253;61823;-52
2023/02/25 03:42:45;;;;;;;22.60;15.80;;;;;;;;;;109390;1251;58636;-53
2023/02/25 03:45:13;;;;;;;25.50;15.60;;;;;;;;;;109402;1251;60104;-51
2023/02/25 03:47:42;;;;;;;28.70;15.90;;;;;;;;;;106442;1251;60431;-52
2023/02/25 03:50:21;;;;;;;23.60;16.40;;;;;;;;;;105324;1251;60437;-50
2023/02/25 03:53:12;;;;;;;21.40;16.20;;;;;;;;;;105543;1251;62467;-51
2023/02/25 03:55:50;;;;;;;21.00;15.00;;;;;;;;;;106499;1256;60294;-50
2023/02/25 03:58:19;;;;;;;25.90;16.40;;;;;;;;;;109505;1251;60777;-50
2023/02/25 04:00:48;;;;;;;25.20;16.80;;;;;;;;;;109345;1251;58618;-51
2023/02/25 04:03:17;;;;;;;29.90;19.20;;;;;;;;;;109427;1251;58431;-51
2023/02/25 04:05:44;;;;;;;20.30;15.40;;;;;;;;;;107104;1252;62372;-51
2023/02/25 04:08:16;;;;;;;29.90;19.50;;;;;;;;;;109262;1254;58448;-51
2023/02/25 04:10:45;;;;;;;34.00;21.10;;;;;;;;;;109397;1250;59578;-51
2023/02/25 04:13:14;;;;;;;26.50;17.70;;;;;;;;;;109418;1251;58070;-51
2023/02/25 04:15:42;;;;;;;30.20;17.40;;;;;;;;;;105632;1251;60418;-52
2023/02/25 04:18:15;;;;;;;22.30;15.60;;;;;;;;;;105287;1251;62269;-50
2023/02/25 04:20:43;;;;;;;34.40;20.00;;;;;;;;;;107903;1254;59572;-52
2023/02/25 04:23:13;;;;;;;31.40;20.40;;;;;;;;;;105469;1253;60829;-53
2023/02/25 04:25:42;;;;;;;33.50;19.50;;;;;;;;;;105462;1256;60441;-52
2023/02/25 04:28:10;;;;;;;32.20;20.30;;;;;;;;;;109426;1251;58167;-51
2023/02/25 04:30:38;;;;;;;29.80;20.20;;;;;;;;;;109528;1251;62036;-51
2023/02/25 04:33:08;;;;;;;31.20;18.40;;;;;;;;;;107399;1254;60517;-51
2023/02/25 04:35:38;;;;;;;25.90;18.20;;;;;;;;;;109535;1251;60709;-52
2023/02/25 04:38:06;;;;;;;30.50;19.60;;;;;;;;;;109497;1250;58477;-52
2023/02/25 04:40:35;;;;;;;30.10;20.20;;;;;;;;;;109483;1251;58557;-52
2023/02/25 04:43:08;;;;;;;32.50;18.90;;;;;;;;;;105882;1251;62319;-51
2023/02/25 04:45:39;;;;;;;30.10;19.70;;;;;;;;;;109441;1251;58606;-53
2023/02/25 04:48:08;;;;;;;29.90;18.40;;;;;;;;;;109476;1251;61088;-52
2023/02/25 04:50:36;;;;;;;27.90;18.40;;;;;;;;;;106621;1251;60329;-53
2023/02/25 04:53:04;;;;;;;24.80;18.50;;;;;;;;;;109455;1251;58437;-53
2023/02/25 04:55:34;;;;;;;28.50;19.00;;;;;;;;;;109481;1251;62169;-53
2023/02/25 04:58:02;;;;;;;31.90;20.90;;;;;;;;;;109477;1250;58501;-52
2023/02/25 05:00:29;;;;;;;31.50;20.80;;;;;;;;;;107753;1254;59705;-52
2023/02/25 05:02:58;;;;;;;26.10;19.30;;;;;;;;;;109440;1250;58322;-51
2023/02/25 05:05:26;;;;;;;28.10;20.10;;;;;;;;;;109486;1250;58108;-51
2023/02/25 05:07:55;;;;;;;31.40;20.80;;;;;;;;;;109528;1251;62003;-51
2023/02/25 05:10:23;;;;;;;33.50;20.80;;;;;;;;;;105754;1255;60484;-50
2023/02/25 05:12:51;;;;;;;35.10;21.80;;;;;;;;;;105319;1256;60790;-52
2023/02/25 05:15:19;;;;;;;30.40;21.60;;;;;;;;;;105406;1251;60411;-49
2023/02/25 05:17:51;;;;;;;34.50;22.20;;;;;;;;;;105274;1257;60440;-51
2023/02/25 05:20:19;;;;;;;28.60;21.20;;;;;;;;;;105426;1251;62088;-51
2023/02/25 05:22:47;;;;;;;36.50;23.60;;;;;;;;;;109373;1253;58513;-52
2023/02/25 05:25:15;;;;;;;33.50;22.90;;;;;;;;;;109300;1251;59346;-52
2023/02/25 05:27:44;;;;;;;34.60;22.20;;;;;;;;;;107212;1254;62044;-50
2023/02/25 05:30:13;;;;;;;39.60;23.00;;;;;;;;;;105294;1254;60501;-51
2023/02/25 05:32:40;;;;;;;37.40;23.00;;;;;;;;;;105213;1256;61883;-51
2023/02/25 05:35:09;;;;;;;26.80;18.90;;;;;;;;;;105736;1256;60404;-51
2023/02/25 05:37:38;;;;;;;33.90;21.70;;;;;;;;;;105431;1256;60787;-53
2023/02/25 05:40:12;;;;;;;37.60;24.00;;;;;;;;;;109384;1251;58470;-52
2023/02/25 05:42:40;;;;;;;30.50;20.80;;;;;;;;;;108066;1255;60457;-52
2023/02/25 05:45:10;;;;;;;31.50;19.60;;;;;;;;;;108966;1254;62134;-51
2023/02/25 05:47:38;;;;;;;35.10;19.90;;;;;;;;;;105273;1255;60354;-50
2023/02/25 05:50:07;;;;;;;33.00;22.20;;;;;;;;;;109409;1250;60656;-52
2023/02/25 05:52:35;;;;;;;33.60;21.60;;;;;;;;;;109368;1252;59345;-52
2023/02/25 05:55:03;;;;;;;32.10;19.80;;;;;;;;;;107347;1255;59536;-51
2023/02/25 05:57:31;;;;;;;32.30;21.70;;;;;;;;;;105337;1255;62200;-52
2023/02/25 06:00:00;;;;;;;35.50;20.60;;;;;;;;;;109020;1254;60508;-51
2023/02/25 06:02:28;;;;;;;44.10;23.80;;;;;;;;;;109386;1251;60879;-54
2023/02/25 06:04:56;;;;;;;30.60;21.40;;;;;;;;;;106687;1254;60325;-52
2023/02/25 06:07:24;;;;;;;36.50;22.70;;;;;;;;;;105494;1251;60345;-53
2023/02/25 06:09:53;;;;;;;35.30;24.20;;;;;;;;;;105428;1256;62318;-52
2023/02/25 06:12:21;;;;;;;36.20;23.20;;;;;;;;;;108888;1255;60514;-51
2023/02/25 06:14:49;;;;;;;31.50;22.80;;;;;;;;;;105356;1254;60615;-50
2023/02/25 06:17:17;;;;;;;37.10;24.50;;;;;;;;;;109332;1251;59664;-52
2023/02/25 06:19:45;;;;;;;38.40;23.60;;;;;;;;;;109388;1251;58306;-52
2023/02/25 06:22:13;;;;;;;32.40;23.20;;;;;;;;;;107616;1254;61135;-51
2023/02/25 06:24:41;;;;;;;40.40;25.40;;;;;;;;;;105132;1255;60403;-49
2023/02/25 06:27:09;;;;;;;41.30;25.00;;;;;;;;;;105276;1251;60523;-51
2023/02/25 06:29:40;;;;;;;33.80;25.20;;;;;;;;;;105077;1252;60584;-50
2023/02/25 06:32:09;;;;;;;34.70;24.60;;;;;;;;;;105127;1250;60443;-52
2023/02/25 06:34:38;;;;;;;42.20;25.10;;;;;;;;;;105167;1256;62249;-50
2023/02/25 06:37:08;;;;;;;36.40;24.30;;;;;;;;;;105371;1251;61266;-51
2023/02/25 06:39:36;;;;;;;37.70;25.20;;;;;;;;;;105217;1255;60620;-47
2023/02/25 06:42:03;;;;;;;39.40;24.80;;;;;;;;;;105223;1256;60392;-52
2023/02/25 06:44:33;;;;;;;34.20;22.10;;;;;;;;;;105315;1251;60329;-49
2023/02/25 06:47:01;;;;;;;31.90;23.80;;;;;;;;;;108228;1251;61929;-51
2023/02/25 06:49:29;;;;;;;32.20;23.10;;;;;;;;;;109414;1251;58469;-52
2023/02/25 06:51:56;;;;;;;37.80;23.50;;;;;;;;;;107631;1251;60462;-50
2023/02/25 06:54:26;;;;;;;36.10;24.40;;;;;;;;;;105408;1253;60889;-50
2023/02/25 06:56:54;;;;;;;39.20;24.60;;;;;;;;;;109538;1251;58351;-52
2023/02/25 06:59:22;;;;;;;36.60;25.30;;;;;;;;;;109403;1251;62340;-52
2023/02/25 07:01:50;;;;;;;36.50;24.80;;;;;;;;;;105281;1251;62151;-51
2023/02/25 07:04:18;;;;;;;37.40;23.60;;;;;;;;;;105431;1253;60969;-49
2023/02/25 07:06:47;;;;;;;35.60;26.70;;;;;;;;;;105105;1251;60529;-51
2023/02/25 07:09:15;;;;;;;37.40;24.10;;;;;;;;;;105212;1251;60571;-50
2023/02/25 07:11:42;;;;;;;37.20;24.80;;;;;;;;;;105090;1251;61302;-50
2023/02/25 07:14:13;;;;;;;38.30;25.50;;;;;;;;;;105045;1251;60537;-50
2023/02/25 07:16:41;;;;;;;41.50;24.10;;;;;;;;;;104810;1251;61262;-50
2023/02/25 07:19:09;;;;;;;39.90;25.70;;;;;;;;;;109157;1256;58527;-52
2023/02/25 07:21:38;;;;;;;38.90;25.40;;;;;;;;;;109258;1253;58410;-50
2023/02/25 07:24:06;;;;;;;36.30;25.00;;;;;;;;;;109343;1250;60960;-50
2023/02/25 07:26:34;;;;;;;38.80;23.50;;;;;;;;;;109305;1251;59032;-50
2023/02/25 07:29:01;;;;;;;39.30;24.20;;;;;;;;;;109415;1251;62106;-51
2023/02/25 07:31:29;;;;;;;37.20;22.20;;;;;;;;;;105325;1251;60429;-51
2023/02/25 07:34:02;;;;;;;38.20;23.60;;;;;;;;;;109464;1255;58530;-53
2023/02/25 07:36:32;;;;;;;49.90;28.30;;;;;;;;;;109522;1251;61831;-51
2023/02/25 07:39:00;;;;;;;44.30;26.60;;;;;;;;;;107189;1251;60421;-52
2023/02/25 07:41:29;;;;;;;44.70;27.50;;;;;;;;;;105244;1251;61026;-48
2023/02/25 07:43:58;;;;;;;41.80;26.40;;;;;;;;;;109039;1251;60476;-49
2023/02/25 07:46:26;;;;;;;38.90;25.50;;;;;;;;;;105095;1251;60747;-51
2023/02/25 07:48:54;;;;;;;39.20;24.20;;;;;;;;;;109276;1251;62535;-50
2023/02/25 07:51:22;;;;;;;38.60;24.00;;;;;;;;;;109360;1251;58481;-51
2023/02/25 07:53:52;;;;;;;42.40;27.40;;;;;;;;;;109428;1251;60789;-49
2023/02/25 07:56:24;;;;;;;42.50;26.50;;;;;;;;;;108710;1251;58572;-51
2023/02/25 07:58:52;;;;;;;36.20;24.90;;;;;;;;;;104889;1250;60829;-50
2023/02/25 08:01:24;;;;;;;37.20;27.30;;;;;;;;;;105045;1251;62120;-53
2023/02/25 08:03:54;;;;;;;42.50;27.40;;;;;;;;;;108849;1255;59657;-49
2023/02/25 08:06:22;;;;;;;39.20;27.20;;;;;;;;;;105271;1251;60775;-50
2023/02/25 08:08:50;;;;;;;30.80;22.60;;;;;;;;;;105331;1256;60420;-51
2023/02/25 08:11:19;;;;;;;40.70;26.10;;;;;;;;;;109473;1250;58196;-52
2023/02/25 08:13:46;;;;;;;38.10;26.60;;;;;;;;;;109558;1250;62119;-51
2023/02/25 08:16:15;;;;;;;42.50;25.90;;;;;;;;;;106119;1255;60527;-47
2023/02/25 08:18:46;;;;;;;38.50;27.60;;;;;;;;;;107685;1251;60534;-49
2023/02/25 08:21:15;;;;;;;41.30;28.30;;;;;;;;;;105478;1251;60467;-47
2023/02/25 08:23:43;;;;;;;38.80;25.80;;;;;;;;;;108643;1253;58400;-50
2023/02/25 08:26:11;;;;;;;40.50;27.00;;;;;;;;;;105424;1255;62268;-50
2023/02/25 08:28:39;;;;;;;37.60;27.40;;;;;;;;;;105479;1258;60643;-48
2023/02/25 08:31:10;;;;;;;36.80;27.30;;;;;;;;;;106644;1255;60765;-48
2023/02/25 08:33:39;;;;;;;40.80;28.60;;;;;;;;;;107377;1256;60540;-50
2023/02/25 08:36:08;;;;;;;44.00;29.20;;;;;;;;;;105534;1256;60420;-50
2023/02/25 08:38:37;;;;;;;41.70;26.90;;;;;;;;;;109522;1252;62193;-50
2023/02/25 08:41:06;;;;;;;42.90;28.50;;;;;;;;;;106729;1253;60635;-47
2023/02/25 08:43:35;;;;;;;36.60;27.30;;;;;;;;;;106236;1256;60358;-46
2023/02/25 08:46:05;;;;;;;42.30;27.80;;;;;;;;;;105804;1256;60527;-50
2023/02/25 08:48:33;;;;;;;36.20;26.70;;;;;;;;;;109387;1251;58212;-51
2023/02/25 08:51:02;;;;;;;41.70;27.40;;;;;;;;;;109377;1251;60668;-49
2023/02/25 08:53:33;;;;;;;33.50;24.90;;;;;;;;;;105503;1254;60414;-50
2023/02/25 08:56:02;;;;;;;37.20;24.90;;;;;;;;;;109517;1251;61202;-49
2023/02/25 08:58:30;;;;;;;35.50;25.70;;;;;;;;;;109467;1251;58483;-48
2023/02/25 09:00:58;;;;;;;31.70;22.00;;;;;;;;;;107662;1251;60290;-50
2023/02/25 09:03:27;;;;;;;39.60;25.70;;;;;;;;;;109488;1251;63866;-51
2023/02/25 09:05:55;;;;;;;30.40;22.60;;;;;;;;;;109497;1251;58668;-50
2023/02/25 09:08:23;;;;;;;27.20;19.40;;;;;;;;;;109529;1251;60479;-49
2023/02/25 09:10:50;;;;;;;31.20;22.50;;;;;;;;;;106795;1256;60558;-50
2023/02/25 09:13:18;;;;;;;32.80;23.30;;;;;;;;;;105448;1252;60498;-51
2023/02/25 09:15:53;;;;;;;32.00;24.20;;;;;;;;;;105520;1251;62376;-47
2023/02/25 09:18:21;;;;;;;38.20;27.90;;;;;;;;;;109105;1253;58513;-46
2023/02/25 09:20:51;;;;;;;30.70;22.10;;;;;;;;;;105801;1256;60661;-49
2023/02/25 09:23:19;;;;;;;31.40;22.40;;;;;;;;;;105565;1256;60411;-52
2023/02/25 09:25:47;;;;;;;25.20;19.10;;;;;;;;;;105614;1254;60447;-53
2023/02/25 09:28:15;;;;;;;26.30;19.00;;;;;;;;;;105587;1256;62149;-47
2023/02/25 09:30:44;;;;;;;22.20;17.60;;;;;;;;;;109354;1251;58450;-49
2023/02/25 09:33:12;;;;;;;20.00;16.70;;;;;;;;;;109580;1251;60879;-51
2023/02/25 09:35:41;;;;;;;25.60;19.90;;;;;;;;;;109469;1251;58802;-50
2023/02/25 09:38:10;;;;;;;27.00;18.50;;;;;;;;;;106901;1257;60425;-49
2023/02/25 09:40:47;;;;;;;20.20;16.10;;;;;;;;;;109484;1251;61911;-50
2023/02/25 09:43:24;;;;;;;20.90;15.20;;;;;;;;;;109454;1251;58621;-50
2023/02/25 09:45:53;;;;;;;20.50;15.80;;;;;;;;;;108707;1251;60842;-49
2023/02/25 09:48:30;;;;;;;22.30;15.80;;;;;;;;;;109413;1251;58291;-52
2023/02/25 09:51:02;;;;;;;20.80;15.00;;;;;;;;;;106487;1257;60427;-49
2023/02/25 09:53:31;;;;;;;20.40;15.30;;;;;;;;;;106100;1257;62180;-48
2023/02/25 09:56:00;;;;;;;20.80;14.50;;;;;;;;;;105405;1260;61517;-50
2023/02/25 09:58:39;;;;;;;20.40;14.50;;;;;;;;;;105410;1251;60697;-47
2023/02/25 10:01:10;;;;;;;20.40;14.60;;;;;;;;;;109485;1251;58500;-50
2023/02/25 10:03:57;;;;;;;18.40;13.60;;;;;;;;;;109521;1251;58502;-50
2023/02/25 10:06:35;;;;;;;15.80;12.60;;;;;;;;;;105795;1256;62088;-51
2023/02/25 10:09:24;;;;;;;16.60;13.40;;;;;;;;;;105336;1256;60698;-52
2023/02/25 10:11:55;;;;;;;22.30;13.20;;;;;;;;;;105297;1251;60528;-51
2023/02/25 10:14:37;;;;;;;18.60;14.30;;;;;;;;;;105443;1256;60383;-48
2023/02/25 10:17:11;;;;;;;16.60;12.80;;;;;;;;;;105350;1252;60502;-48
2023/02/25 10:19:48;;;;;;;21.40;13.90;;;;;;;;;;105451;1251;62435;-48
2023/02/25 10:22:33;;;;;;;15.80;12.20;;;;;;;;;;105129;1251;60472;-51
2023/02/25 10:25:14;;;;;;;13.70;11.50;;;;;;;;;;105281;1257;60820;-51
2023/02/25 10:27:48;;;;;;;14.40;11.30;;;;;;;;;;109477;1255;58471;-51
2023/02/25 10:30:47;;;;;;;17.00;13.30;;;;;;;;;;109411;1250;58449;-51
2023/02/25 10:33:17;;;;;;;16.70;12.90;;;;;;;;;;106149;1250;61210;-47
2023/02/25 10:35:45;;;;;;;15.90;12.40;;;;;;;;;;105355;1254;60768;-52
2023/02/25 10:38:13;;;;;;;19.30;13.30;;;;;;;;;;105302;1256;60590;-52
2023/02/25 10:40:42;;;;;;;13.70;10.80;;;;;;;;;;105428;1257;60501;-51
2023/02/25 10:43:17;;;;;;;14.00;11.40;;;;;;;;;;105512;1251;60450;-52
2023/02/25 10:45:45;;;;;;;13.20;11.40;;;;;;;;;;109484;1251;61132;-52
2023/02/25 10:48:19;;;;;;;20.20;13.30;;;;;;;;;;109326;1251;58214;-51
2023/02/25 10:51:11;;;;;;;18.30;14.40;;;;;;;;;;108030;1251;59669;-49
2023/02/25 10:53:57;;;;;;;18.60;13.90;;;;;;;;;;105422;1257;60523;-50
2023/02/25 10:56:27;;;;;;;61.70;37.00;;;;;;;;;;109380;1251;58491;-50
2023/02/25 10:58:58;;;;;;;31.30;21.30;;;;;;;;;;109281;1251;61601;-52
2023/02/25 11:01:27;;;;;;;26.70;19.80;;;;;;;;;;109533;1251;58432;-52
2023/02/25 11:03:59;;;;;;;14.60;11.20;;;;;;;;;;107998;1255;60536;-49
2023/02/25 11:06:27;;;;;;;18.20;13.60;;;;;;;;;;105397;1250;60521;-47
2023/02/25 11:08:57;;;;;;;19.30;14.70;;;;;;;;;;105349;1251;60445;-49
2023/02/25 11:11:26;;;;;;;10.20;9.20;;;;;;;;;;105432;1251;62168;-51
2023/02/25 11:14:24;;;;;;;30.80;20.60;;;;;;;;;;109460;1250;58649;-50
2023/02/25 11:16:52;;;;;;;34.60;26.00;;;;;;;;;;109329;1251;60626;-51
2023/02/25 11:19:22;;;;;;;43.30;32.20;;;;;;;;;;105920;1254;60490;-51
2023/02/25 11:21:50;;;;;;;25.80;16.70;;;;;;;;;;109353;1251;58783;-50
2023/02/25 11:24:23;;;;;;;15.70;13.70;;;;;;;;;;109344;1251;61975;-51
2023/02/25 11:26:50;;;;;;;20.30;15.40;;;;;;;;;;109135;1252;58901;-53
2023/02/25 11:29:19;;;;;;;21.10;14.70;;;;;;;;;;109288;1256;60434;-52
2023/02/25 11:32:08;;;;;;;19.50;14.30;;;;;;;;;;109380;1250;186087;-51
2023/02/25 11:36:37;;;;;;;31.00;22.50;;;;;;;9.10;100.00;97515.80;102072;1291;600298;-51
2023/02/25 11:39:15;;;;;;;20.70;15.20;;;;;;;9.14;100.00;97531.85;104346;1269;63284;-50
2023/02/25 11:41:45;;;;;;;19.60;13.30;;;;;;;9.19;100.00;97521.41;104395;1269;60225;-50
2023/02/25 11:44:28;;;;;;;13.10;10.60;;;;;;;9.26;100.00;97508.20;104255;1269;72385;-49
2023/02/25 11:47:24;;;;;;;31.20;19.10;;;;;;;9.35;100.00;97504.03;104732;1268;66541;-50
2023/02/25 11:50:37;;;;;;;30.20;21.50;;;;;;;9.47;100.00;97499.84;108251;1265;154065;-51
2023/02/25 11:53:14;;;;;;;23.40;17.20;;;;;;;9.58;100.00;97499.48;108201;1263;59589;-51
2023/02/25 11:55:52;;;;;;;17.20;13.50;;;;;;;9.62;100.00;97496.85;105836;1263;59318;-51
2023/02/25 11:58:46;;;;;;;15.50;12.60;;;;;;;9.60;100.00;97494.85;107110;1268;72779;-50
2023/02/25 12:01:34;;;;;;;;;;;;;;;9.55;100.00;97489.95;104576;1264;67468;-51
2023/02/25 12:04:37;;;;;;;14.40;12.90;;;;;;;9.46;100.00;97482.22;104365;1265;72892;-51
2023/02/25 12:07:08;;;;;;;15.40;12.10;;;;;;;9.40;100.00;97480.38;104262;1271;62070;-53
2023/02/25 12:09:59;;;;;;;16.00;12.00;;;;;;;9.35;100.00;97472.69;108461;1265;60577;-48
2023/02/25 12:12:46;;;;;;;15.20;10.60;;;;;;;9.32;100.00;97466.11;108130;1265;71119;-49
2023/02/25 12:15:58;;;;;;;16.50;12.20;;;;;;;9.29;100.00;97468.38;104742;1269;66315;-51
2023/02/25 12:18:38;;;;;;;16.10;12.80;;;;;;;9.25;100.00;97466.73;104582;1265;72502;-50
2023/02/25 12:21:18;;;;;;;15.60;10.80;;;;;;;9.22;100.00;97463.70;104447;1268;61098;-49
2023/02/25 12:24:12;;;;;;;15.40;13.30;;;;;;;9.19;100.00;97456.97;104468;1265;60020;-51
2023/02/25 12:27:01;;;;;;;16.60;14.50;;;;;;;9.14;100.00;97462.96;105015;1261;71970;-51
2023/02/25 12:29:52;;;;;;;14.00;12.30;;;;;;;9.07;100.00;97459.02;105441;1259;67227;-50
2023/02/25 12:32:33;;;;;;;20.10;14.60;;;;;;;9.01;100.00;97454.61;104894;1259;73920;-50
2023/02/25 12:35:20;;;;;;;20.00;14.80;;;;;;;8.97;100.00;97453.14;108976;1257;59704;-51
2023/02/25 12:38:00;;;;;;;17.30;13.80;;;;;;;8.94;100.00;97450.17;105139;1262;59491;-51
2023/02/25 12:40:37;;;;;;;15.80;13.40;;;;;;;8.92;100.00;97444.31;104812;1259;73681;-52
2023/02/25 12:43:23;;;;;;;13.70;12.10;;;;;;;8.91;100.00;97442.91;108825;1257;67378;-52
2023/02/25 12:46:02;;;;;;;16.80;12.00;;;;;;;8.91;100.00;97442.55;108332;1256;73100;-52
2023/02/25 12:48:54;;;;;;;17.90;13.30;;;;;;;8.93;100.00;97439.41;108951;1256;62251;-52
2023/02/25 12:51:37;;;;;;;27.10;19.10;;;;;;;8.96;100.00;97433.08;105275;1263;60071;-49
2023/02/25 12:54:53;;;;;;;18.50;15.20;;;;;;;8.98;100.00;97433.09;105149;1257;73058;-53
2023/02/25 12:57:44;;;;;;;15.30;13.10;;;;;;;8.99;100.00;97433.92;104689;1266;67951;-51
2023/02/25 13:00:35;;;;;;;19.20;12.70;;;;;;;8.97;100.00;97430.27;105069;1256;72916;-49
2023/02/25 13:03:31;;;;;;;18.80;13.60;;;;;;;8.94;100.00;97417.77;105075;1259;61192;-48
2023/02/25 13:06:34;;;;;;;17.90;13.50;;;;;;;8.94;100.00;97420.52;104979;1257;60361;-52
2023/02/25 13:09:35;;;;;;;20.40;14.80;;;;;;;8.94;100.00;97415.80;105088;1256;73131;-52
2023/02/25 13:12:25;;;;;;;17.50;12.90;;;;;;;8.96;100.00;97412.48;104702;1256;66458;-49
2023/02/25 13:15:13;;;;;;;18.30;14.20;;;;;;;8.99;100.00;97406.36;105017;1262;72565;-48
2023/02/25 13:17:59;;;;;;;15.70;13.20;;;;;;;9.02;100.00;97400.74;104920;1256;63183;-50
2023/02/25 13:20:45;;;;;;;;;;;;;;;9.05;100.00;97402.98;105106;1256;61151;-49
2023/02/25 13:23:33;;;;;;;20.10;13.30;;;;;;;9.07;100.00;97395.99;106008;1256;73710;-49
2023/02/25 13:26:21;;;;;;;15.30;12.50;;;;;;;9.08;100.00;97393.80;105578;1260;66265;-48
2023/02/25 13:29:00;;;;;;;20.80;13.90;;;;;;;9.07;100.00;97391.91;105060;1261;72852;-48
2023/02/25 13:31:35;;;;;;;17.70;14.60;;;;;;;9.04;100.00;97385.30;105028;1259;61629;-50
2023/02/25 13:34:41;;;;;;;18.10;13.50;;;;;;;9.01;100.00;97380.40;105084;1256;60238;-50
2023/02/25 13:37:20;;;;;;;17.50;13.70;;;;;;;8.97;100.00;97379.50;105001;1256;71991;-50
2023/02/25 13:40:04;;;;;;;17.20;12.40;;;;;;;8.93;100.00;97373.86;104726;1257;67240;-52
2023/02/25 13:42:59;;;;;;;17.30;12.10;;;;;;;8.91;100.00;97372.30;105164;1256;71719;-49
2023/02/25 13:45:39;;;;;;;17.50;12.30;;;;;;;8.90;100.00;97368.27;104776;1263;63064;-50
2023/02/25 13:48:07;;;;;;;20.50;13.70;;;;;;;8.88;100.00;97361.08;105098;1256;59719;-52
2023/02/25 13:50:45;;;;;;;16.00;12.80;;;;;;;8.87;100.00;97355.05;105168;1258;74572;-52
2023/02/25 13:53:32;;;;;;;16.10;12.90;;;;;;;8.87;100.00;97349.54;105101;1259;66142;-50
2023/02/25 13:56:00;;;;;;;13.80;11.10;;;;;;;8.86;100.00;97339.20;104997;1256;72947;-50
2023/02/25 13:58:54;;;;;;;21.40;12.70;;;;;;;8.85;100.00;97325.90;104985;1258;62270;-51
2023/02/25 14:01:34;;;;;;;22.20;12.70;;;;;;;8.85;100.00;97328.54;105168;1259;59478;-48
2023/02/25 14:04:40;;;;;;;17.80;13.80;;;;;;;8.85;100.00;97322.35;105066;1256;72428;-51
2023/02/25 14:07:39;;;;;;;19.20;13.40;;;;;;;8.84;100.00;97322.95;104992;1257;65996;-52
2023/02/25 14:10:25;;;;;;;16.70;14.40;;;;;;;8.85;100.00;97313.60;104947;1259;73912;-51